Time;durP1;ratioP1;P1;durP2;ratioP2;P2;SDS_P1;SDS_P2;PMS_P1;PMS_P2;Temp;Humidity;BMP_temperature;BMP_pressure;BME280_temperature;BME280_humidity;BME280_pressure;Samples;Min_cycle;Max_cycle;Signal;HPM_P1;HPM_P2
2022/11/17 00:01:51;;;;;;;3.73;2.70;;;3.80;99.90;;;;;;5016288;28;20234;-65
2022/11/17 00:04:18;;;;;;;2.83;2.60;;;4.00;99.90;;;;;;5016340;28;20199;-67
2022/11/17 00:06:45;;;;;;;3.03;2.80;;;3.90;99.90;;;;;;5017366;28;20203;-66
2022/11/17 00:09:16;;;;;;;2.53;2.33;;;3.90;99.90;;;;;;5015514;28;20211;-64
2022/11/17 00:14:32;;;;;;;2.93;2.63;;;3.90;99.90;;;;;;5020618;28;20209;-65
2022/11/17 00:17:00;;;;;;;2.80;2.50;;;3.90;99.90;;;;;;5021905;28;20202;-64
2022/11/17 00:22:11;;;;;;;2.27;2.07;;;3.90;99.90;;;;;;5006938;28;20226;-66
2022/11/17 00:24:38;;;;;;;2.33;2.13;;;3.90;99.90;;;;;;5019836;28;20248;-65
2022/11/17 00:27:04;;;;;;;2.13;1.70;;;3.90;99.90;;;;;;5016776;28;20683;-63
2022/11/17 00:29:32;;;;;;;1.93;1.73;;;4.00;99.90;;;;;;5019921;28;20207;-65
2022/11/17 00:34:44;;;;;;;1.80;1.70;;;3.90;99.90;;;;;;5020136;28;20203;-66
2022/11/17 00:37:12;;;;;;;2.17;1.93;;;3.80;99.90;;;;;;5020708;28;20215;-65
2022/11/17 00:39:39;;;;;;;2.50;2.13;;;3.70;99.90;;;;;;5020028;28;20204;-66
2022/11/17 00:42:06;;;;;;;2.53;1.73;;;3.70;99.90;;;;;;5020882;28;20672;-65
2022/11/17 00:44:33;;;;;;;2.13;2.00;;;3.70;99.90;;;;;;5020450;28;20214;-66
2022/11/17 00:47:01;;;;;;;1.80;1.70;;;3.70;99.90;;;;;;5019361;28;20218;-65
2022/11/17 00:49:28;;;;;;;2.20;1.93;;;3.60;99.90;;;;;;5020479;28;20210;-65
2022/11/17 00:51:56;;;;;;;2.37;2.00;;;3.70;99.90;;;;;;5017705;28;20586;-66
2022/11/17 00:54:23;;;;;;;1.70;1.53;;;3.70;99.90;;;;;;5020278;28;20211;-65
2022/11/17 00:56:50;;;;;;;2.03;1.70;;;3.70;99.90;;;;;;5021056;28;20235;-66
2022/11/17 00:59:17;;;;;;;2.13;1.83;;;3.70;99.90;;;;;;5020327;28;20241;-64
2022/11/17 01:01:44;;;;;;;1.97;1.80;;;3.70;99.90;;;;;;5017832;28;20215;-66
2022/11/17 01:04:13;;;;;;;2.57;2.00;;;3.60;99.90;;;;;;5021149;28;20238;-65
2022/11/17 01:06:41;;;;;;;1.73;1.63;;;3.60;99.90;;;;;;5021180;28;20667;-66
2022/11/17 01:09:12;;;;;;;2.00;1.70;;;3.60;99.90;;;;;;5019669;28;20213;-64
2022/11/17 01:11:39;;;;;;;2.07;1.90;;;3.50;99.90;;;;;;5019419;28;20235;-65
2022/11/17 01:14:06;;;;;;;2.50;2.13;;;3.50;99.90;;;;;;5020782;28;20222;-65
2022/11/17 01:16:33;;;;;;;1.87;1.73;;;3.50;99.90;;;;;;5017515;28;20234;-67
2022/11/17 01:19:01;;;;;;;3.53;2.20;;;3.50;99.90;;;;;;5020077;28;20463;-66
2022/11/17 01:21:31;;;;;;;2.93;2.50;;;3.40;99.90;;;;;;5019248;28;20210;-66
2022/11/17 01:23:59;;;;;;;2.60;2.07;;;3.40;99.90;;;;;;5017710;28;20238;-66
2022/11/17 01:26:28;;;;;;;2.20;1.97;;;3.40;99.90;;;;;;5019281;28;20215;-66
2022/11/17 01:28:55;;;;;;;2.00;1.80;;;3.30;99.90;;;;;;5019317;28;20211;-64
2022/11/17 01:31:24;;;;;;;1.63;1.53;;;3.40;99.90;;;;;;5019428;28;20207;-65
2022/11/17 01:33:51;;;;;;;2.87;1.60;;;3.40;99.90;;;;;;5016528;28;20527;-65
2022/11/17 01:36:20;;;;;;;1.80;1.70;;;3.40;99.90;;;;;;5018932;28;20207;-66
2022/11/17 01:38:48;;;;;;;4.17;2.03;;;3.40;99.90;;;;;;5018512;28;20208;-67
2022/11/17 01:41:17;;;;;;;2.23;1.90;;;3.40;99.90;;;;;;5019258;28;20211;-66
2022/11/17 01:43:46;;;;;;;1.43;1.33;;;3.30;99.90;;;;;;5019374;28;20246;-67
2022/11/17 01:46:25;;;;;;;2.07;1.87;;;3.30;99.90;;;;;;5018518;28;20211;-67
2022/11/17 01:48:54;;;;;;;2.20;2.00;;;3.20;99.90;;;;;;5019248;28;20254;-64
2022/11/17 01:51:22;;;;;;;3.10;2.23;;;3.20;99.90;;;;;;5016727;28;20212;-64
2022/11/17 01:53:50;;;;;;;1.93;1.73;;;3.20;99.90;;;;;;5015742;28;20209;-68
2022/11/17 01:56:21;;;;;;;1.70;1.60;;;3.20;99.90;;;;;;5017711;28;20214;-63
2022/11/17 01:58:52;;;;;;;1.90;1.80;;;3.20;99.90;;;;;;5017569;28;20211;-63
2022/11/17 02:01:19;;;;;;;2.20;1.60;;;3.10;99.90;;;;;;5016896;28;20205;-63
2022/11/17 02:03:48;;;;;;;1.80;1.70;;;3.10;99.90;;;;;;5015593;28;20238;-66
2022/11/17 02:06:19;;;;;;;1.93;1.80;;;3.10;99.90;;;;;;5008164;28;20211;-66
2022/11/17 02:08:48;;;;;;;1.90;1.77;;;3.10;99.90;;;;;;5012948;28;20667;-64
2022/11/17 02:11:19;;;;;;;2.03;1.83;;;3.10;99.90;;;;;;5012283;28;20238;-64
2022/11/17 02:13:46;;;;;;;1.83;1.73;;;3.10;99.90;;;;;;5012253;28;20199;-66
2022/11/17 02:16:14;;;;;;;3.00;2.03;;;3.10;99.90;;;;;;5013475;28;20199;-66
2022/11/17 02:18:42;;;;;;;2.33;2.13;;;3.00;99.90;;;;;;5011095;28;20227;-66
2022/11/17 02:21:43;;;;;;;3.17;2.60;;;3.00;99.90;;;;;;5010328;28;20207;-68
2022/11/17 02:24:40;;;;;;;2.57;2.20;;;3.00;99.90;;;;;;5005814;28;20243;-67
2022/11/17 02:27:33;;;;;;;2.23;2.03;;;2.90;99.90;;;;;;5010904;28;20227;-66
2022/11/17 02:30:03;;;;;;;3.40;2.03;;;2.90;99.90;;;;;;5006722;28;20208;-66
2022/11/17 02:32:39;;;;;;;3.00;2.13;;;3.00;99.90;;;;;;5010019;28;20704;-66
2022/11/17 02:35:13;;;;;;;2.27;2.07;;;3.00;99.90;;;;;;5010701;28;20210;-67
2022/11/17 02:37:45;;;;;;;2.47;2.27;;;2.90;99.90;;;;;;4999083;28;20686;-68
2022/11/17 02:40:18;;;;;;;2.53;2.10;;;2.90;99.90;;;;;;5009067;28;20286;-68
2022/11/17 02:45:39;;;;;;;3.03;2.80;;;2.80;99.90;;;;;;5009663;28;20414;-69
2022/11/17 02:48:14;;;;;;;2.90;2.60;;;2.80;99.90;;;;;;5010752;28;20199;-68
2022/11/17 02:50:44;;;;;;;2.60;1.97;;;2.90;99.90;;;;;;5009961;28;20211;-67
2022/11/17 02:53:12;;;;;;;2.60;2.37;;;2.80;99.90;;;;;;5008877;28;20210;-67
2022/11/17 02:55:39;;;;;;;2.47;2.27;;;2.80;99.90;;;;;;5010270;28;20548;-68
2022/11/17 02:58:11;;;;;;;3.40;2.40;;;2.80;99.90;;;;;;5010052;28;20215;-68
2022/11/17 03:00:47;;;;;;;3.80;2.30;;;2.80;99.90;;;;;;5008690;28;20611;-68
2022/11/17 03:03:25;;;;;;;2.60;2.40;;;2.70;99.90;;;;;;5010836;28;20238;-66
2022/11/17 03:05:58;;;;;;;2.93;2.60;;;2.70;99.90;;;;;;5011603;28;20217;-67
2022/11/17 03:08:32;;;;;;;2.60;2.20;;;2.70;99.90;;;;;;5009645;28;20202;-68
2022/11/17 03:11:01;;;;;;;3.47;2.80;;;2.70;99.90;;;;;;5009510;28;20245;-68
2022/11/17 03:13:42;;;;;;;3.00;2.70;;;2.70;99.90;;;;;;5010415;28;20200;-67
2022/11/17 03:16:16;;;;;;;2.53;2.33;;;2.70;99.90;;;;;;5009567;28;20207;-67
2022/11/17 03:18:51;;;;;;;3.87;2.70;;;2.80;99.90;;;;;;4998030;28;20202;-67
2022/11/17 03:21:21;;;;;;;3.13;2.40;;;2.70;99.90;;;;;;5008352;28;20635;-67
2022/11/17 03:23:54;;;;;;;3.97;2.27;;;2.70;99.90;;;;;;5009225;28;20261;-68
2022/11/17 03:26:24;;;;;;;2.77;2.30;;;2.70;99.90;;;;;;5009493;28;20207;-68
2022/11/17 03:28:54;;;;;;;3.47;2.40;;;2.70;99.90;;;;;;4999431;28;20218;-67
2022/11/17 03:31:24;;;;;;;1.80;1.70;;;2.70;99.90;;;;;;5009555;28;20199;-66
2022/11/17 03:33:52;;;;;;;2.43;2.20;;;2.70;99.90;;;;;;5010204;28;20207;-67
2022/11/17 03:36:23;;;;;;;2.80;2.47;;;2.70;99.90;;;;;;5008665;28;20218;-69
2022/11/17 03:38:53;;;;;;;2.63;2.00;;;2.70;99.90;;;;;;5007800;28;20234;-67
2022/11/17 03:41:23;;;;;;;2.67;2.30;;;2.70;99.90;;;;;;5009313;28;20215;-66
2022/11/17 03:43:54;;;;;;;2.07;1.97;;;2.60;99.90;;;;;;5009153;28;20903;-67
2022/11/17 03:46:23;;;;;;;3.27;2.97;;;2.60;99.90;;;;;;5007051;28;20214;-67
2022/11/17 03:48:55;;;;;;;2.67;2.10;;;2.60;99.90;;;;;;5009090;28;20652;-69
2022/11/17 03:51:25;;;;;;;2.23;2.03;;;2.60;99.90;;;;;;5008209;28;20210;-68
2022/11/17 03:53:53;;;;;;;3.40;2.60;;;2.60;99.90;;;;;;5007015;28;20207;-66
2022/11/17 03:56:30;;;;;;;2.90;2.60;;;2.70;99.90;;;;;;5007877;28;20608;-67
2022/11/17 03:59:03;;;;;;;2.60;2.40;;;2.70;99.90;;;;;;5005037;28;20199;-67
2022/11/17 04:01:32;;;;;;;3.53;2.37;;;2.70;99.90;;;;;;5008887;28;20208;-67
2022/11/17 04:03:59;;;;;;;2.57;2.20;;;2.70;99.90;;;;;;5008163;28;20610;-67
2022/11/17 04:06:26;;;;;;;3.27;2.60;;;2.70;99.90;;;;;;5008464;28;20211;-67
2022/11/17 04:08:53;;;;;;;2.70;2.13;;;2.60;99.90;;;;;;5008405;28;20214;-67
2022/11/17 04:16:49;;;;;;;3.10;2.20;;;2.60;99.90;;;;;;5007294;28;20835;-68
2022/11/17 04:19:16;;;;;;;2.63;2.43;;;2.60;99.90;;;;;;5009279;28;20218;-66
2022/11/17 04:21:43;;;;;;;2.70;2.10;;;2.50;99.90;;;;;;5007306;28;20245;-69
2022/11/17 04:24:09;;;;;;;2.73;2.47;;;2.60;99.90;;;;;;5007519;28;20241;-68
2022/11/17 04:29:21;;;;;;;2.30;2.07;;;2.60;99.90;;;;;;5009226;28;20686;-67
2022/11/17 04:31:48;;;;;;;2.80;2.10;;;2.60;99.90;;;;;;5009179;28;20215;-68
2022/11/17 04:34:15;;;;;;;2.23;2.00;;;2.50;99.90;;;;;;5008531;28;20242;-68
2022/11/17 04:36:45;;;;;;;3.17;2.07;;;2.60;99.90;;;;;;5007271;28;20218;-68
2022/11/17 04:39:13;;;;;;;3.10;2.17;;;2.50;99.90;;;;;;5007004;28;20215;-68
2022/11/17 04:41:52;;;;;;;2.97;2.23;;;2.50;99.90;;;;;;5008573;28;20219;-68
2022/11/17 04:44:21;;;;;;;2.63;1.60;;;2.50;99.90;;;;;;4998403;28;20582;-68
2022/11/17 04:46:48;;;;;;;2.17;1.90;;;2.50;99.90;;;;;;5008038;28;20211;-68
2022/11/17 04:49:17;;;;;;;2.80;2.30;;;2.60;99.90;;;;;;5009167;28;20431;-68
2022/11/17 04:51:44;;;;;;;2.10;1.77;;;2.40;99.90;;;;;;5007766;28;20676;-67
2022/11/17 04:54:13;;;;;;;2.83;2.10;;;2.50;99.90;;;;;;5006408;28;20195;-67
2022/11/17 04:56:40;;;;;;;2.57;2.03;;;2.50;99.90;;;;;;5008235;28;20214;-69
2022/11/17 04:59:07;;;;;;;2.47;1.80;;;2.50;99.90;;;;;;5008455;28;20203;-68
2022/11/17 05:01:36;;;;;;;2.33;1.80;;;2.50;99.90;;;;;;5013148;28;20207;-68
2022/11/17 05:04:05;;;;;;;1.73;1.63;;;2.50;99.90;;;;;;5012549;28;20610;-67
2022/11/17 05:06:33;;;;;;;3.90;1.73;;;2.50;99.90;;;;;;5010728;28;20224;-69
2022/11/17 05:09:03;;;;;;;2.60;1.80;;;2.50;99.90;;;;;;5011726;28;20214;-68
2022/11/17 05:14:17;;;;;;;2.37;1.73;;;2.50;99.90;;;;;;5010128;28;20573;-67
2022/11/17 05:19:32;;;;;;;1.80;1.67;;;2.50;99.90;;;;;;5012335;28;20816;-67
2022/11/17 05:21:58;;;;;;;1.97;1.63;;;2.50;99.90;;;;;;5008925;28;20573;-68
2022/11/17 05:24:25;;;;;;;1.97;1.73;;;2.50;99.90;;;;;;5006949;28;20853;-67
2022/11/17 05:26:52;;;;;;;3.87;1.50;;;2.50;99.90;;;;;;5010494;28;20223;-67
2022/11/17 05:29:21;;;;;;;2.20;1.70;;;2.50;99.90;;;;;;5008598;28;20219;-68
2022/11/17 05:31:49;;;;;;;1.93;1.80;;;2.50;99.90;;;;;;5007771;28;20238;-67
2022/11/17 05:34:17;;;;;;;2.27;1.93;;;2.50;99.90;;;;;;5011398;28;20211;-69
2022/11/17 05:36:44;;;;;;;6.47;2.23;;;2.60;99.90;;;;;;5002188;28;20219;-67
2022/11/17 05:39:12;;;;;;;2.80;1.70;;;2.50;99.90;;;;;;5006609;28;20203;-69
2022/11/17 05:41:39;;;;;;;1.93;1.83;;;2.50;99.90;;;;;;5010201;28;20203;-67
2022/11/17 05:44:06;;;;;;;2.93;1.90;;;2.50;99.90;;;;;;5006585;28;20238;-67
2022/11/17 05:46:33;;;;;;;1.93;1.80;;;2.50;99.90;;;;;;5009719;28;20215;-67
2022/11/17 05:49:01;;;;;;;2.40;2.20;;;2.50;99.90;;;;;;5010719;28;20219;-67
2022/11/17 05:51:28;;;;;;;3.70;1.97;;;2.50;99.90;;;;;;4991037;28;20210;-67
2022/11/17 05:53:55;;;;;;;2.23;2.03;;;2.50;99.90;;;;;;5009724;28;20207;-67
2022/11/17 05:56:34;;;;;;;2.70;2.10;;;2.50;99.90;;;;;;5003980;28;20215;-66
2022/11/17 05:59:08;;;;;;;2.90;2.17;;;2.50;99.90;;;;;;5006637;28;20207;-67
2022/11/17 06:01:38;;;;;;;2.80;1.80;;;2.50;99.90;;;;;;5006137;28;20211;-71
2022/11/17 06:04:08;;;;;;;2.30;1.80;;;2.50;99.90;;;;;;5008769;28;20238;-68
2022/11/17 06:06:37;;;;;;;2.00;1.90;;;2.40;99.90;;;;;;5010174;28;20207;-70
2022/11/17 06:09:04;;;;;;;3.30;2.57;;;2.40;99.90;;;;;;5010207;28;20596;-67
2022/11/17 06:11:31;;;;;;;2.60;2.10;;;2.40;99.90;;;;;;5005325;28;20250;-68
2022/11/17 06:13:58;;;;;;;2.33;2.10;;;2.40;99.90;;;;;;5009232;28;20295;-69
2022/11/17 06:16:29;;;;;;;2.00;1.80;;;2.40;99.90;;;;;;5006722;28;20538;-69
2022/11/17 06:19:02;;;;;;;3.40;2.10;;;2.40;99.90;;;;;;5010010;28;20207;-68
2022/11/17 06:21:31;;;;;;;2.20;2.00;;;2.50;99.90;;;;;;4999984;28;20267;-68
2022/11/17 06:23:59;;;;;;;2.97;2.10;;;2.40;99.90;;;;;;5008117;28;20238;-67
2022/11/17 06:26:25;;;;;;;2.80;2.10;;;2.40;99.90;;;;;;5008057;28;20230;-64
2022/11/17 06:28:53;;;;;;;2.83;2.20;;;2.40;99.90;;;;;;5019043;28;20577;-63
2022/11/17 06:31:20;;;;;;;3.43;2.43;;;2.40;99.90;;;;;;5021337;28;20207;-67
2022/11/17 06:33:47;;;;;;;3.97;2.20;;;2.40;99.90;;;;;;5024563;28;20211;-65
2022/11/17 06:36:14;;;;;;;2.13;1.93;;;2.40;99.90;;;;;;5026880;28;20211;-65
2022/11/17 06:38:42;;;;;;;2.20;2.00;;;2.30;99.90;;;;;;5026427;28;20208;-66
2022/11/17 06:41:09;;;;;;;3.57;2.00;;;2.30;99.90;;;;;;5023082;28;20195;-67
2022/11/17 06:43:35;;;;;;;2.57;2.37;;;2.40;99.90;;;;;;5009511;28;20207;-68
2022/11/17 06:46:03;;;;;;;2.77;2.50;;;2.40;99.90;;;;;;5010127;28;20213;-65
2022/11/17 06:48:34;;;;;;;2.73;2.13;;;2.30;99.90;;;;;;5013047;28;20211;-66
2022/11/17 06:51:02;;;;;;;2.53;1.83;;;2.30;99.90;;;;;;5010328;28;20207;-66
2022/11/17 06:53:29;;;;;;;2.30;1.90;;;2.30;99.90;;;;;;5020100;28;20211;-65
2022/11/17 06:56:07;;;;;;;3.50;2.20;;;2.30;99.90;;;;;;5027157;28;20257;-65
2022/11/17 06:58:34;;;;;;;2.30;1.67;;;2.30;99.90;;;;;;5023368;28;20210;-67
2022/11/17 07:01:02;;;;;;;3.07;2.07;;;2.20;99.90;;;;;;5012572;28;20230;-64
2022/11/17 07:03:29;;;;;;;2.57;1.83;;;2.30;99.90;;;;;;5019779;28;20644;-64
2022/11/17 07:05:59;;;;;;;2.10;1.60;;;2.30;99.90;;;;;;5011757;28;20217;-65
2022/11/17 07:08:25;;;;;;;1.83;1.70;;;2.30;99.90;;;;;;5020698;28;20641;-63
2022/11/17 07:10:53;;;;;;;1.60;1.50;;;2.30;99.90;;;;;;5016910;28;20239;-63
2022/11/17 07:13:22;;;;;;;2.00;1.80;;;2.20;99.90;;;;;;5015320;28;20203;-64
2022/11/17 07:15:49;;;;;;;2.40;2.17;;;2.30;99.90;;;;;;5020665;28;20210;-63
2022/11/17 07:18:17;;;;;;;2.83;2.53;;;2.30;99.90;;;;;;5026214;28;20215;-70
2022/11/17 07:20:44;;;;;;;2.63;1.90;;;2.40;99.90;;;;;;5028594;28;20276;-63
2022/11/17 07:23:11;;;;;;;2.80;2.33;;;2.30;99.90;;;;;;5023138;28;20199;-66
2022/11/17 07:25:37;;;;;;;2.50;2.00;;;2.30;99.90;;;;;;5029460;28;20254;-63
2022/11/17 07:28:05;;;;;;;2.30;1.70;;;2.30;99.90;;;;;;5031219;28;20223;-65
2022/11/17 07:30:33;;;;;;;1.83;1.73;;;2.20;99.90;;;;;;5018515;28;20207;-65
2022/11/17 07:33:00;;;;;;;2.33;2.00;;;2.20;99.90;;;;;;5017808;28;20204;-64
2022/11/17 07:35:28;;;;;;;2.43;2.23;;;2.20;99.90;;;;;;5010950;28;20207;-65
2022/11/17 07:37:58;;;;;;;2.53;2.33;;;2.20;99.90;;;;;;5016221;28;20446;-63
2022/11/17 07:40:25;;;;;;;4.13;2.30;;;2.20;99.90;;;;;;5024461;28;20234;-71
2022/11/17 07:42:52;;;;;;;3.87;2.50;;;2.20;99.90;;;;;;5006789;28;20203;-69
2022/11/17 07:45:20;;;;;;;4.80;2.50;;;2.10;99.90;;;;;;5007284;28;20231;-69
2022/11/17 07:47:53;;;;;;;2.57;2.37;;;2.10;99.90;;;;;;5007407;28;20203;-68
2022/11/17 07:50:20;;;;;;;3.53;2.50;;;2.10;99.90;;;;;;5008486;28;20613;-67
2022/11/17 07:52:48;;;;;;;3.30;2.63;;;2.10;99.90;;;;;;5011716;28;20238;-65
2022/11/17 07:55:15;;;;;;;3.47;2.80;;;2.20;99.90;;;;;;5013493;28;20644;-64
2022/11/17 07:57:41;;;;;;;6.87;3.43;;;2.20;99.90;;;;;;5003103;28;20668;-67
2022/11/17 08:00:09;;;;;;;3.53;2.60;;;2.10;99.90;;;;;;5007656;28;20227;-68
2022/11/17 08:02:36;;;;;;;4.10;2.87;;;2.10;99.90;;;;;;5014581;28;20207;-67
2022/11/17 08:05:05;;;;;;;4.83;3.07;;;2.10;99.90;;;;;;5018721;28;20218;-66
2022/11/17 08:07:32;;;;;;;4.00;2.80;;;2.10;99.90;;;;;;5014995;28;20212;-65
2022/11/17 08:09:58;;;;;;;3.17;2.83;;;2.00;99.90;;;;;;5013261;28;20329;-72
2022/11/17 08:12:25;;;;;;;4.20;2.90;;;2.00;99.90;;;;;;5012106;28;20210;-65
2022/11/17 08:14:52;;;;;;;3.27;2.57;;;2.00;99.90;;;;;;5016318;28;20200;-70
2022/11/17 08:17:19;;;;;;;4.23;3.00;;;2.00;99.90;;;;;;5002955;28;20207;-70
2022/11/17 08:19:45;;;;;;;4.73;3.27;;;2.00;99.90;;;;;;5004284;28;20566;-72
2022/11/17 08:22:13;;;;;;;4.43;2.90;;;2.00;99.90;;;;;;5002250;28;20715;-73
2022/11/17 08:24:40;;;;;;;4.20;2.97;;;1.90;99.90;;;;;;5009526;28;20231;-68
2022/11/17 08:27:07;;;;;;;4.20;3.10;;;1.90;99.90;;;;;;5007954;28;21059;-72
2022/11/17 08:29:34;;;;;;;4.70;2.80;;;1.90;99.90;;;;;;5006680;28;20207;-70
2022/11/17 08:32:00;;;;;;;4.57;2.77;;;2.00;99.90;;;;;;5006312;28;20203;-73
2022/11/17 08:34:28;;;;;;;3.47;2.70;;;2.00;99.90;;;;;;5010293;28;20559;-74
2022/11/17 08:36:55;;;;;;;6.13;2.77;;;2.00;99.90;;;;;;5012011;28;20215;-70
2022/11/17 08:39:23;;;;;;;4.93;2.97;;;2.00;99.90;;;;;;5006439;28;20295;-71
2022/11/17 08:41:51;;;;;;;3.37;2.63;;;2.00;99.90;;;;;;5007548;28;20219;-71
2022/11/17 08:44:18;;;;;;;4.40;2.37;;;2.00;99.90;;;;;;5012378;28;20238;-74
2022/11/17 08:46:44;;;;;;;3.27;2.97;;;1.90;99.90;;;;;;5013012;28;20215;-69
2022/11/17 08:49:11;;;;;;;4.30;2.67;;;2.00;99.90;;;;;;5014376;28;20203;-70
2022/11/17 08:51:38;;;;;;;5.03;3.23;;;1.90;99.90;;;;;;5012232;28;20203;-71
2022/11/17 08:54:05;;;;;;;3.03;2.67;;;1.90;99.90;;;;;;5010242;28;20294;-72
2022/11/17 08:56:33;;;;;;;3.43;2.90;;;1.90;99.90;;;;;;5012274;28;20219;-72
2022/11/17 08:59:02;;;;;;;4.50;3.37;;;1.90;99.90;;;;;;5009441;28;20250;-75
2022/11/17 09:01:29;;;;;;;3.00;2.70;;;2.00;99.90;;;;;;5010371;28;20214;-70
2022/11/17 09:03:55;;;;;;;4.13;3.10;;;1.90;99.90;;;;;;5015764;28;20203;-69
2022/11/17 09:06:22;;;;;;;3.80;2.90;;;1.90;99.90;;;;;;5014774;28;20219;-65
2022/11/17 09:08:49;;;;;;;4.27;3.10;;;1.80;99.90;;;;;;5020207;28;20211;-72
2022/11/17 09:11:16;;;;;;;3.47;3.17;;;1.80;99.90;;;;;;5013316;28;20237;-68
2022/11/17 09:13:45;;;;;;;3.07;2.43;;;1.90;99.90;;;;;;5010847;28;20220;-71
2022/11/17 09:16:13;;;;;;;3.47;3.13;;;1.90;99.90;;;;;;5011770;28;20204;-70
2022/11/17 09:18:41;;;;;;;3.93;3.50;;;1.80;99.90;;;;;;5007068;28;20214;-72
2022/11/17 09:21:11;;;;;;;4.43;3.40;;;1.80;99.90;;;;;;5014907;28;20295;-72
2022/11/17 09:23:38;;;;;;;4.83;3.47;;;1.80;99.90;;;;;;5013563;28;20200;-71
2022/11/17 09:26:07;;;;;;;6.30;3.40;;;1.80;99.90;;;;;;5009373;28;20231;-76
2022/11/17 09:28:36;;;;;;;6.60;3.83;;;1.90;99.90;;;;;;5011858;28;20208;-72
2022/11/17 09:31:08;;;;;;;4.43;3.40;;;1.90;99.90;;;;;;5014089;28;20208;-73
2022/11/17 09:33:35;;;;;;;6.40;4.10;;;1.90;99.90;;;;;;5008230;28;20203;-73
2022/11/17 09:36:01;;;;;;;4.53;3.63;;;2.00;99.90;;;;;;5011792;28;20598;-73
2022/11/17 09:38:28;;;;;;;4.43;3.70;;;2.00;99.90;;;;;;5011324;28;20212;-73
2022/11/17 09:40:57;;;;;;;7.17;4.20;;;2.00;99.90;;;;;;5009687;28;20207;-75
2022/11/17 09:43:28;;;;;;;4.17;3.77;;;2.00;99.90;;;;;;5010884;28;20257;-73
2022/11/17 09:45:59;;;;;;;5.73;3.80;;;2.00;99.90;;;;;;5009126;28;20216;-74
2022/11/17 09:48:36;;;;;;;5.50;3.87;;;1.90;99.90;;;;;;5009140;28;20215;-72
2022/11/17 09:51:08;;;;;;;3.77;3.33;;;2.00;99.90;;;;;;5002352;28;20512;-74
2022/11/17 09:53:43;;;;;;;6.90;3.33;;;2.00;99.90;;;;;;5012845;28;20690;-72
2022/11/17 09:56:11;;;;;;;8.03;3.97;;;1.90;99.90;;;;;;5010722;28;20207;-73
2022/11/17 09:58:45;;;;;;;5.80;3.80;;;1.90;99.90;;;;;;5012407;28;20207;-72
2022/11/17 10:01:13;;;;;;;4.10;3.40;;;1.90;99.90;;;;;;5006834;28;20227;-74
2022/11/17 10:03:43;;;;;;;4.50;3.50;;;1.80;99.90;;;;;;5011993;28;20230;-73
2022/11/17 10:06:14;;;;;;;4.93;3.60;;;1.90;99.90;;;;;;5009805;28;20268;-73
2022/11/17 10:08:46;;;;;;;4.93;3.50;;;1.90;99.90;;;;;;5009003;28;20210;-73
2022/11/17 10:11:35;;;;;;;4.60;3.63;;;1.90;99.90;;;;;;5012537;28;20262;-74
2022/11/17 10:14:04;;;;;;;5.13;4.37;;;1.80;99.90;;;;;;5011017;28;20675;-74
2022/11/17 10:16:31;;;;;;;4.67;3.73;;;1.90;99.90;;;;;;5003206;28;20538;-75
2022/11/17 10:19:02;;;;;;;5.37;3.53;;;1.80;99.90;;;;;;5007923;28;20203;-75
2022/11/17 10:21:30;;;;;;;5.57;3.70;;;1.90;99.90;;;;;;5011538;28;20207;-73
2022/11/17 10:23:58;;;;;;;5.70;4.27;;;1.90;99.90;;;;;;5010889;28;20709;-74
2022/11/17 10:26:25;;;;;;;7.90;4.97;;;1.80;99.90;;;;;;5008717;28;20230;-72
2022/11/17 10:29:06;;;;;;;5.03;4.37;;;1.80;99.90;;;;;;4995606;28;20214;-72
2022/11/17 10:31:40;;;;;;;6.07;4.60;;;1.80;99.90;;;;;;5004849;28;20301;-73
2022/11/17 10:34:11;;;;;;;6.43;4.40;;;1.80;99.90;;;;;;5008850;28;20208;-73
2022/11/17 10:36:46;;;;;;;7.23;3.80;;;1.80;99.90;;;;;;5010759;28;20941;-73
2022/11/17 10:39:37;;;;;;;5.77;4.50;;;1.80;99.90;;;;;;5010566;28;20687;-73
2022/11/17 10:42:19;;;;;;;6.17;4.50;;;1.90;99.90;;;;;;5007157;28;20245;-74
2022/11/17 10:44:50;;;;;;;5.83;4.37;;;1.80;99.90;;;;;;5003167;28;20210;-73
2022/11/17 10:47:29;;;;;;;6.07;4.63;;;1.90;99.90;;;;;;5008623;28;20266;-75
2022/11/17 10:50:16;;;;;;;5.63;4.50;;;1.90;99.90;;;;;;5009956;28;20203;-74
2022/11/17 10:52:44;;;;;;;9.97;4.20;;;1.80;99.90;;;;;;5003879;28;20207;-73
2022/11/17 10:55:25;;;;;;;5.40;4.27;;;1.80;99.90;;;;;;5006327;28;20207;-72
2022/11/17 10:57:56;;;;;;;6.50;4.07;;;1.80;99.90;;;;;;5003795;28;20207;-73
2022/11/17 11:00:27;;;;;;;6.20;4.50;;;1.80;99.90;;;;;;5009333;28;20587;-74
2022/11/17 11:03:16;;;;;;;6.00;4.27;;;1.90;99.90;;;;;;5008197;28;20211;-72
2022/11/17 11:06:02;;;;;;;5.50;4.17;;;1.90;99.90;;;;;;5009852;28;21005;-72
2022/11/17 11:08:40;;;;;;;5.50;4.40;;;1.80;99.90;;;;;;5008124;28;20222;-73
2022/11/17 11:11:12;;;;;;;5.30;4.27;;;1.80;99.90;;;;;;5008802;28;20242;-72
2022/11/17 11:13:45;;;;;;;5.40;4.20;;;1.80;99.90;;;;;;5007220;28;20209;-73
2022/11/17 11:16:12;;;;;;;6.63;4.97;;;1.80;99.90;;;;;;5008259;28;20202;-73
2022/11/17 11:18:39;;;;;;;7.73;5.27;;;1.80;99.90;;;;;;5005053;28;20564;-73
2022/11/17 11:21:13;;;;;;;6.23;4.60;;;1.80;99.90;;;;;;5011320;28;20218;-74
2022/11/17 11:23:48;;;;;;;6.50;4.33;;;1.90;99.90;;;;;;5010855;28;20218;-74
2022/11/17 11:26:29;;;;;;;6.73;5.03;;;1.90;99.90;;;;;;5002404;28;20211;-73
2022/11/17 11:29:05;;;;;;;6.87;4.23;;;1.90;99.90;;;;;;4997089;28;20214;-73
2022/11/17 11:31:44;;;;;;;5.00;4.40;;;2.00;99.90;;;;;;4982026;28;20207;-73
2022/11/17 11:34:22;;;;;;;5.67;4.03;;;1.90;99.90;;;;;;4995276;28;20206;-74
2022/11/17 11:36:52;;;;;;;5.40;4.00;;;2.00;99.90;;;;;;5007509;28;20678;-73
2022/11/17 11:39:34;;;;;;;4.97;4.33;;;2.00;99.90;;;;;;5006004;28;20797;-73
2022/11/17 11:42:17;;;;;;;6.53;4.10;;;2.00;99.90;;;;;;5002020;28;20243;-75
2022/11/17 11:44:59;;;;;;;4.97;4.17;;;2.10;99.90;;;;;;5004025;28;20683;-74
2022/11/17 11:47:42;;;;;;;6.40;4.30;;;2.10;99.90;;;;;;5008248;28;20222;-73
2022/11/17 11:50:15;;;;;;;5.13;4.30;;;2.10;99.90;;;;;;5001810;28;20215;-75
2022/11/17 11:52:47;;;;;;;5.93;4.17;;;2.10;99.90;;;;;;4994595;28;20215;-72
2022/11/17 11:55:20;;;;;;;6.97;5.20;;;2.10;99.90;;;;;;5006165;28;20206;-73
2022/11/17 11:57:54;;;;;;;6.20;4.70;;;2.20;99.90;;;;;;5005732;28;20199;-73
2022/11/17 12:00:21;;;;;;;5.50;4.60;;;2.20;99.90;;;;;;5003441;28;20231;-74
2022/11/17 12:02:52;;;;;;;6.13;4.53;;;2.20;99.90;;;;;;4996390;28;20211;-73
2022/11/17 12:05:26;;;;;;;5.70;4.73;;;2.20;99.90;;;;;;5008687;28;20219;-74
2022/11/17 12:08:00;;;;;;;7.10;4.53;;;2.20;99.90;;;;;;5009562;28;20601;-72
2022/11/17 12:10:34;;;;;;;7.33;5.13;;;2.20;99.90;;;;;;5014186;28;20262;-72
2022/11/17 12:13:03;;;;;;;7.03;4.73;;;2.20;99.90;;;;;;5010357;28;20230;-70
2022/11/17 12:15:37;;;;;;;8.10;4.73;;;2.20;99.90;;;;;;5014441;28;20283;-72
2022/11/17 12:18:13;;;;;;;6.17;4.47;;;2.20;99.90;;;;;;5014909;28;20596;-72
2022/11/17 12:20:53;;;;;;;5.40;4.67;;;2.20;99.90;;;;;;5011440;28;20199;-73
2022/11/17 12:23:30;;;;;;;4.07;3.40;;;2.20;99.90;;;;;;5003753;28;20203;-76
2022/11/17 12:26:01;;;;;;;4.40;3.83;;;2.20;99.90;;;;;;5011550;28;20225;-75
2022/11/17 12:28:34;;;;;;;5.77;3.80;;;2.20;99.90;;;;;;5010674;28;20294;-75
2022/11/17 12:31:03;;;;;;;6.83;3.37;;;2.20;99.90;;;;;;5026292;28;20207;-71
2022/11/17 12:34:13;;;;;;;5.33;4.00;;;2.30;99.90;;;;;;5033219;28;20341;-73
2022/11/17 12:36:40;;;;;;;4.83;3.10;;;2.40;99.90;;;;;;4996822;28;20203;-74
2022/11/17 12:39:28;;;;;;;4.33;3.23;;;2.50;99.90;;;;;;5005259;28;20699;-77
2022/11/17 12:42:06;;;;;;;4.80;3.50;;;2.50;99.90;;;;;;5011419;28;20211;-73
2022/11/17 12:44:49;;;;;;;4.67;3.47;;;2.50;99.90;;;;;;5009970;28;20644;-77
2022/11/17 12:47:20;;;;;;;8.60;4.10;;;2.40;99.90;;;;;;5011513;28;20721;-77
2022/11/17 12:50:03;;;;;;;4.87;3.60;;;2.30;99.90;;;;;;5013513;28;20261;-78
2022/11/17 12:52:39;;;;;;;5.47;3.90;;;2.30;99.90;;;;;;5007992;28;20199;-75
2022/11/17 12:55:16;;;;;;;5.17;3.70;;;2.30;99.90;;;;;;5009761;28;20200;-75
2022/11/17 12:57:48;;;;;;;8.67;3.90;;;2.30;99.90;;;;;;5013513;28;20215;-79
2022/11/17 13:00:19;;;;;;;4.70;3.87;;;2.30;99.90;;;;;;5017684;28;20816;-72
2022/11/17 13:03:01;;;;;;;6.17;3.90;;;2.30;99.90;;;;;;5023153;28;20196;-72
2022/11/17 13:05:30;;;;;;;5.37;4.07;;;2.20;99.90;;;;;;5018834;28;20226;-73
2022/11/17 13:08:21;;;;;;;5.83;4.03;;;2.30;99.90;;;;;;5010890;28;20263;-72
2022/11/17 13:10:48;;;;;;;4.13;3.70;;;2.20;99.90;;;;;;5011573;28;20239;-72
2022/11/17 13:13:19;;;;;;;4.33;3.57;;;2.20;99.90;;;;;;5015410;28;20245;-75
2022/11/17 13:15:50;;;;;;;4.80;3.70;;;2.20;99.90;;;;;;5013425;28;20204;-71
2022/11/17 13:18:27;;;;;;;5.73;3.63;;;2.20;99.90;;;;;;5011384;28;20222;-73
2022/11/17 13:20:54;;;;;;;4.17;3.50;;;2.20;99.90;;;;;;5016102;28;20648;-70
2022/11/17 13:23:24;;;;;;;4.60;3.90;;;2.20;99.90;;;;;;5016436;28;20214;-69
2022/11/17 13:26:07;;;;;;;4.80;4.20;;;2.20;99.90;;;;;;5019278;28;20315;-75
2022/11/17 13:28:36;;;;;;;6.03;4.03;;;2.20;99.90;;;;;;5022806;28;20381;-73
2022/11/17 13:31:03;;;;;;;6.03;4.00;;;2.20;99.90;;;;;;5012496;28;20210;-74
2022/11/17 13:33:31;;;;;;;4.40;3.70;;;2.20;99.90;;;;;;5020743;28;20213;-74
2022/11/17 13:36:16;;;;;;;4.27;3.60;;;2.20;99.90;;;;;;5008170;28;20299;-72
2022/11/17 13:38:50;;;;;;;3.70;3.23;;;2.20;99.90;;;;;;5017383;28;20211;-74
2022/11/17 13:41:21;;;;;;;4.70;3.43;;;2.10;99.90;;;;;;5030901;28;20295;-71